Flight Track Log - Related Links

Times and Time Zones

All times are in EDT time to prevent confusion due to time zone crossing. See the VRT51 flight status page for this flight to view local times or setup timezone preferences in your user account.

Time Position Orientation Groundspeed Altitude Reporting Facility
EDT Latitude Longitude Course Direction KTS MPH feet Rate Location/Type
09:05AM 35.9794 -85.4297 174° South 276 318 8,800  Level Memphis Center
09:06AM 35.9017 -85.4139 171° South 267 307 11,400 2,350 Climbing Memphis Center
09:07AM 35.8028 -85.3967 172° South 298 343 13,500 2,550 Climbing Memphis Center
09:08AM 35.6933 -85.3700 169° South 368 423 16,500 2,800 Climbing Memphis Center
09:09AM 35.5778 -85.3489 172° South 406 467 19,100 2,864 Climbing Memphis Center
09:10AM 35.4361 -85.3183 170° South 420 483 22,800 2,864 Climbing Atlanta Center
09:11AM 35.3197 -85.2961 171° South 427 491 25,400 2,150 Climbing Atlanta Center
09:12AM 35.1967 -85.2714 171° South 439 505 27,100 1,500 Climbing Atlanta Center
09:13AM 35.0678 -85.2467 171° South 452 520 28,400 950 Climbing Atlanta Center
09:14AM 34.9322 -85.2194 171° South 476 548 29,000 300 Climbing Atlanta Center
09:15AM 34.7928 -85.1897 170° South 499 574 29,000 550 Level Atlanta Center
09:16AM 34.6783 -85.1653 170° South 511 588 30,100 1,450 Climbing Atlanta Center
09:17AM 34.5303 -85.1356 171° South 505 581 31,900 1,700 Climbing Atlanta Center
09:18AM 34.3803 -85.1086 172° South 499 574 33,500 1,550 Climbing Atlanta Center
09:19AM 34.2469 -85.0817 171° South 499 574 35,000 3,750 Climbing Atlanta Center
09:20AM 34.1114 -85.0550 171° South 499 574 41,000 1,500 Climbing Atlanta Center
09:21AM 33.9844 -85.0308 171° South 487 560 38,000 -900 Descending Atlanta Center
09:22AM 33.8553 -85.0069 171° South 476 548 39,200 1,000 Climbing Atlanta Center
09:23AM 33.7258 -84.9806 170° South 470 541 40,000 750 Climbing Atlanta Center
09:24AM 33.5989 -84.9567 171° South 464 534 40,700 500 Climbing Atlanta Center
09:25AM 33.4694 -84.9328 171° South 464 534 41,000 150 Climbing Atlanta Center
09:26AM 33.3383 -84.9067 171° South 470 541 41,000  Level Atlanta Center
09:27AM 33.2050 -84.8781 170° South 482 555 41,000  Level Atlanta Center
09:28AM 33.0756 -84.8544 171° South 482 555 41,000  Level Atlanta Center
09:29AM 32.9422 -84.8283 171° South 482 555 41,000  Level Atlanta Center
09:30AM 32.8108 -84.8050 172° South 476 548 41,000  Level Atlanta Center
09:31AM 32.6775 -84.7742 169° South 481 554 41,000  Level Atlanta Center
09:32AM 32.5461 -84.7486 171° South 481 554 41,000  Level Atlanta Center
09:33AM 32.4147 -84.7253 171° South 481 554 41,000  Level Atlanta Center
09:34AM 32.2833 -84.6997 171° South 481 554 41,000  Level Atlanta Center
09:35AM 32.1519 -84.6742 171° South 481 554 41,000  Level Atlanta Center
09:37AM 31.9167 -84.6278 170° South 500 575 41,000  Level Jacksonville Center
09:38AM 31.7833 -84.6058 172° South 500 575 41,000  Level Jacksonville Center
09:39AM 31.6500 -84.5789 170° South 495 570 41,000  Level Jacksonville Center
09:40AM 31.5147 -84.5544 171° South 495 570 41,000  Level Jacksonville Center
09:41AM 31.3833 -84.5303 171° South 495 570 41,000  Level Jacksonville Center
09:42AM 31.2481 -84.5036 170° South 490 564 41,000  Level Jacksonville Center
09:43AM 31.1214 -84.4553 162° South 483 556 41,000  Level Jacksonville Center
09:44AM 31.0011 -84.3783 151° Southeast 479 551 41,000  Level Jacksonville Center
09:45AM 30.8789 -84.3014 152° Southeast 486 559 41,000  Level Jacksonville Center
09:46AM 30.7586 -84.2269 152° Southeast 491 565 41,000  Level Jacksonville Center
09:47AM 30.6403 -84.1481 150° Southeast 491 565 41,000  Level Jacksonville Center
09:48AM 30.5367 -84.0839 152° Southeast 491 565 41,000  Level Jacksonville Center
09:49AM 30.4161 -84.0078 151° Southeast 491 565 41,000  Level Jacksonville Center
09:50AM 30.2978 -83.9342 152° Southeast 491 565 41,000  Level Jacksonville Center
09:51AM 30.1772 -83.8608 152° Southeast 491 565 41,000  Level Jacksonville Center
09:52AM 30.0567 -83.7853 152° Southeast 491 565 41,000  Level Jacksonville Center
09:53AM 29.9381 -83.7147 153° Southeast 491 565 41,000  Level Jacksonville Center
09:54AM 29.8175 -83.6394 152° Southeast 486 559 41,000  Level Jacksonville Center
09:55AM 29.6989 -83.5669 152° Southeast 486 559 41,000  Level Jacksonville Center
09:56AM 29.5803 -83.4944 152° Southeast 486 559 41,000  Level Jacksonville Center
09:57AM 29.4492 -83.4125 151° Southeast 486 559 41,000  Level Jacksonville Center
09:58AM 29.3306 -83.3403 152° Southeast 486 559 41,000  Level Jacksonville Center
09:59AM 29.2117 -83.2636 151° Southeast 486 559 41,000  Level Jacksonville Center
10:00AM 29.0908 -83.1944 153° Southeast 486 559 41,000  Level Jacksonville Center
10:01AM 28.9742 -83.1203 151° Southeast 486 559 41,000  Level Jacksonville Center
10:02AM 28.8553 -83.0492 152° Southeast 486 559 41,000  Level Jacksonville Center
10:03AM 28.7342 -82.9778 153° Southeast 486 559 41,000  Level Jacksonville Center
10:05AM 28.5094 -82.8442 152° Southeast 482 555 41,000  Level Miami Center
10:06AM 28.3936 -82.7742 152° Southeast 482 555 41,000  Level Miami Center
10:07AM 28.2778 -82.7022 151° Southeast 482 555 41,000  Level Miami Center
10:08AM 28.1594 -82.6325 153° Southeast 482 555 41,000  Level Miami Center
10:09AM 28.0392 -82.5628 153° Southeast 482 555 41,000  Level Miami Center
10:10AM 27.9247 -82.5008 154° Southeast 474 545 41,000  Level Miami Center
10:11AM 27.8014 -82.4572 163° South 468 539 41,000 -600 Level Miami Center
10:12AM 27.6781 -82.4114 162° South 473 544 39,800 -1,600 Descending Miami Center
10:13AM 27.5525 -82.3653 162° South 473 544 37,800 -1,950 Descending Miami Center
10:14AM 27.4447 -82.2878 147° Southeast 467 537 35,900 -1,900 Descending Miami Center
10:15AM 27.3497 -82.2083 143° Southeast 469 540 34,000 -1,950 Descending Miami Center
10:16AM 27.2444 -82.1194 143° Southeast 475 547 32,000 -2,150 Descending Miami Center
10:17AM 27.1289 -82.0233 143° Southeast 480 552 29,700 -2,100 Descending Miami Center
10:18AM 27.0214 -81.9369 144° Southeast 480 552 27,800 -1,800 Descending Miami Center
10:19AM 26.9261 -81.8583 144° Southeast 480 552 26,100 -1,700 Descending Miami Center
10:20AM 26.8183 -81.7700 144° Southeast 485 558 24,400 -1,900 Descending Miami Center
10:21AM 26.7106 -81.6842 145° Southeast 485 558 22,300 -2,100 Descending Miami Center
10:22AM 26.5989 -81.5867 142° Southeast 477 549 20,200 -2,050 Descending Miami Center
10:23AM 26.4992 -81.5083 145° Southeast 449 517 18,200 -1,950 Descending Miami Center
10:24AM 26.4056 -81.4306 143° Southeast 429 494 16,300 -1,950 Descending Miami Center
10:25AM 26.3142 -81.3550 143° Southeast 424 488 14,300 -1,950 Descending Miami Center
10:26AM 26.2606 -81.2606 122° Southeast 405 466 12,400 -1,765 Descending Miami Center
10:27AM 26.2069 -81.1636 122° Southeast 324 373 10,800 -1,600 Descending Miami Center
10:27AM 26.2111 -81.1683 315° West 372 428 10,800 -1,378 Level Miami Center
10:28AM 26.1556 -81.0644 121° Southeast 287 330 9,100 -1,400 Descending Miami Center
10:29AM 26.1281 -81.0103 119° Southeast 294 338 8,000 -1,377 Descending Miami Center
10:29AM 26.1161 -80.9892 122° Southeast 289 333 7,700 -1,400 Descending Miami Center
10:30AM 26.1136 -80.9242 92° East 283 326 6,600 -1,475 Descending Miami Center
10:30AM 26.1081 -80.8986 104° East 275 316 6,200 -600 Descending Miami Center
10:31AM 26.1056 -80.8383 93° East 270 311 6,000 -197 Descending Miami Center
10:31AM 26.1000 -80.8106 103° East 276 318 6,000  Level Miami Center
10:32AM 26.0997 -80.7456 90° East 275 316 6,000  Level Miami Center
10:32AM 26.0919 -80.7222 110° East 285 328 6,000 -400 Level Miami Center
10:33AM 26.0894 -80.6597 93° East 281 323 5,600 -689 Descending Miami Center
10:33AM 26.0858 -80.6367 100° East 282 325 5,300 -600 Descending Miami Center
10:34AM 26.0811 -80.5739 95° East 276 318 5,000 -269 Descending Miami Center
10:34AM 26.0758 -80.5414 100° East 265 305 5,000  Level Miami Center
10:35AM 26.0792 -80.4931 86° East 271 312 5,000 -179 Level Miami Center
10:35AM 26.0758 -80.4558 96° East 241 277 4,800 -700 Descending Miami Center
10:36AM 26.0786 -80.4211 85° East 256 295 4,300 -1,179 Descending Miami Center
10:36AM 26.0775 -80.3889 92° East 229 264 3,700 -1,077 Descending Miami Center
10:37AM 26.0744 -80.3356 94° East 201 231 2,900 -934 Descending Miami Center
10:38AM 26.0739 -80.2686 91° East 161 185 1,800 -851 Descending Miami Center
10:39AM 26.0750 -80.2222 88° East 136 157 1,000 -738 Descending Miami Center
10:40AM 26.0739 -80.1828 92° East 123 142 300 -689 Descending Miami Center
10:42AM 26.0667 -80.1500 180° South  Level FlightAware Approximate
10:49AM 26.0726 -80.1527 180° South  Level Estimated

Login

Don't have an account? Register now (free) for customized features, flight alerts, and more!